sensor_id;sensor_type;location;lat;lon;timestamp;P1;durP1;ratioP1;P2;durP2;ratioP2
22184;SDS011;11258;52.516;13.318;2022-11-23T00:03:43;67.17;;;29.13;;
22184;SDS011;11258;52.516;13.318;2022-11-23T00:06:10;66.83;;;30.17;;
22184;SDS011;11258;52.516;13.318;2022-11-23T00:08:36;62.50;;;29.93;;
22184;SDS011;11258;52.516;13.318;2022-11-23T00:11:01;69.03;;;29.43;;
22184;SDS011;11258;52.516;13.318;2022-11-23T00:13:27;63.67;;;29.43;;
22184;SDS011;11258;52.516;13.318;2022-11-23T00:15:53;67.03;;;29.30;;
22184;SDS011;11258;52.516;13.318;2022-11-23T00:18:18;67.90;;;28.13;;
22184;SDS011;11258;52.516;13.318;2022-11-23T00:20:44;57.83;;;27.80;;
22184;SDS011;11258;52.516;13.318;2022-11-23T00:23:09;65.67;;;29.87;;
22184;SDS011;11258;52.516;13.318;2022-11-23T00:25:35;61.50;;;28.93;;
22184;SDS011;11258;52.516;13.318;2022-11-23T00:28:01;63.27;;;29.80;;
22184;SDS011;11258;52.516;13.318;2022-11-23T00:30:27;61.13;;;29.53;;
22184;SDS011;11258;52.516;13.318;2022-11-23T00:32:53;66.63;;;30.37;;
22184;SDS011;11258;52.516;13.318;2022-11-23T00:35:19;66.37;;;28.63;;
22184;SDS011;11258;52.516;13.318;2022-11-23T00:37:44;71.70;;;29.97;;
22184;SDS011;11258;52.516;13.318;2022-11-23T00:40:10;63.80;;;30.77;;
22184;SDS011;11258;52.516;13.318;2022-11-23T00:42:36;63.87;;;29.80;;
22184;SDS011;11258;52.516;13.318;2022-11-23T00:45:02;59.73;;;28.17;;
22184;SDS011;11258;52.516;13.318;2022-11-23T00:47:28;67.20;;;29.53;;
22184;SDS011;11258;52.516;13.318;2022-11-23T00:49:53;68.03;;;29.93;;
22184;SDS011;11258;52.516;13.318;2022-11-23T00:52:19;66.13;;;28.77;;
22184;SDS011;11258;52.516;13.318;2022-11-23T00:54:44;62.53;;;29.57;;
22184;SDS011;11258;52.516;13.318;2022-11-23T00:57:11;59.37;;;28.60;;
22184;SDS011;11258;52.516;13.318;2022-11-23T00:59:37;65.50;;;29.10;;
22184;SDS011;11258;52.516;13.318;2022-11-23T01:02:02;62.47;;;28.33;;
22184;SDS011;11258;52.516;13.318;2022-11-23T01:04:28;59.57;;;28.33;;
22184;SDS011;11258;52.516;13.318;2022-11-23T01:06:54;59.53;;;29.27;;
22184;SDS011;11258;52.516;13.318;2022-11-23T01:09:23;60.80;;;28.33;;
22184;SDS011;11258;52.516;13.318;2022-11-23T01:11:51;64.93;;;27.73;;
22184;SDS011;11258;52.516;13.318;2022-11-23T01:14:18;64.63;;;27.90;;
22184;SDS011;11258;52.516;13.318;2022-11-23T01:16:45;68.00;;;29.33;;
22184;SDS011;11258;52.516;13.318;2022-11-23T01:19:11;58.63;;;27.67;;
22184;SDS011;11258;52.516;13.318;2022-11-23T01:21:38;65.40;;;28.77;;
22184;SDS011;11258;52.516;13.318;2022-11-23T01:24:05;61.07;;;29.03;;
22184;SDS011;11258;52.516;13.318;2022-11-23T01:26:32;62.13;;;27.57;;
22184;SDS011;11258;52.516;13.318;2022-11-23T01:28:57;59.97;;;28.23;;
22184;SDS011;11258;52.516;13.318;2022-11-23T01:31:23;62.77;;;29.53;;
22184;SDS011;11258;52.516;13.318;2022-11-23T01:33:56;70.40;;;29.83;;
22184;SDS011;11258;52.516;13.318;2022-11-23T01:36:24;60.20;;;29.77;;
22184;SDS011;11258;52.516;13.318;2022-11-23T01:38:51;63.43;;;28.50;;
22184;SDS011;11258;52.516;13.318;2022-11-23T01:41:19;62.73;;;27.73;;
22184;SDS011;11258;52.516;13.318;2022-11-23T01:43:46;66.70;;;29.23;;
22184;SDS011;11258;52.516;13.318;2022-11-23T01:46:12;60.93;;;27.43;;
22184;SDS011;11258;52.516;13.318;2022-11-23T01:48:43;58.90;;;28.00;;
22184;SDS011;11258;52.516;13.318;2022-11-23T01:51:14;52.30;;;25.43;;
22184;SDS011;11258;52.516;13.318;2022-11-23T01:53:43;58.33;;;27.33;;
22184;SDS011;11258;52.516;13.318;2022-11-23T01:56:13;56.67;;;27.23;;
22184;SDS011;11258;52.516;13.318;2022-11-23T01:58:44;57.70;;;26.23;;
22184;SDS011;11258;52.516;13.318;2022-11-23T02:01:14;53.70;;;26.80;;
22184;SDS011;11258;52.516;13.318;2022-11-23T02:03:40;60.60;;;27.20;;
22184;SDS011;11258;52.516;13.318;2022-11-23T02:06:09;57.93;;;26.67;;
22184;SDS011;11258;52.516;13.318;2022-11-23T02:08:39;59.47;;;26.70;;
22184;SDS011;11258;52.516;13.318;2022-11-23T02:11:05;55.90;;;26.87;;
22184;SDS011;11258;52.516;13.318;2022-11-23T02:13:31;56.80;;;26.77;;
22184;SDS011;11258;52.516;13.318;2022-11-23T02:15:57;50.03;;;23.93;;
22184;SDS011;11258;52.516;13.318;2022-11-23T02:18:27;54.67;;;26.27;;
22184;SDS011;11258;52.516;13.318;2022-11-23T02:20:55;57.43;;;25.77;;
22184;SDS011;11258;52.516;13.318;2022-11-23T02:23:32;53.50;;;25.90;;
22184;SDS011;11258;52.516;13.318;2022-11-23T02:28:53;49.10;;;25.03;;
22184;SDS011;11258;52.516;13.318;2022-11-23T02:31:20;59.77;;;25.27;;
22184;SDS011;11258;52.516;13.318;2022-11-23T02:33:46;53.90;;;25.97;;
22184;SDS011;11258;52.516;13.318;2022-11-23T02:39:44;53.07;;;27.97;;
22184;SDS011;11258;52.516;13.318;2022-11-23T02:41:56;59.53;;;26.97;;
22184;SDS011;11258;52.516;13.318;2022-11-23T02:46:54;54.30;;;26.50;;
22184;SDS011;11258;52.516;13.318;2022-11-23T02:49:21;51.20;;;25.37;;
22184;SDS011;11258;52.516;13.318;2022-11-23T02:51:46;50.80;;;25.20;;
22184;SDS011;11258;52.516;13.318;2022-11-23T02:54:12;49.10;;;25.73;;
22184;SDS011;11258;52.516;13.318;2022-11-23T02:56:37;48.57;;;25.80;;
22184;SDS011;11258;52.516;13.318;2022-11-23T02:59:03;50.83;;;24.70;;
22184;SDS011;11258;52.516;13.318;2022-11-23T03:01:29;52.13;;;26.37;;
22184;SDS011;11258;52.516;13.318;2022-11-23T03:03:54;53.73;;;24.60;;
22184;SDS011;11258;52.516;13.318;2022-11-23T03:06:20;52.10;;;25.23;;
22184;SDS011;11258;52.516;13.318;2022-11-23T03:08:46;54.63;;;26.80;;
22184;SDS011;11258;52.516;13.318;2022-11-23T03:11:11;49.93;;;25.00;;
22184;SDS011;11258;52.516;13.318;2022-11-23T03:13:37;53.57;;;24.47;;
22184;SDS011;11258;52.516;13.318;2022-11-23T03:16:02;49.73;;;24.77;;
22184;SDS011;11258;52.516;13.318;2022-11-23T03:18:28;47.00;;;25.93;;
22184;SDS011;11258;52.516;13.318;2022-11-23T03:21:02;55.47;;;26.47;;
22184;SDS011;11258;52.516;13.318;2022-11-23T03:23:28;54.83;;;25.87;;
22184;SDS011;11258;52.516;13.318;2022-11-23T03:25:54;53.03;;;25.37;;
22184;SDS011;11258;52.516;13.318;2022-11-23T03:28:21;52.73;;;25.50;;
22184;SDS011;11258;52.516;13.318;2022-11-23T03:30:47;53.17;;;25.40;;
22184;SDS011;11258;52.516;13.318;2022-11-23T03:33:12;52.97;;;26.07;;
22184;SDS011;11258;52.516;13.318;2022-11-23T03:35:38;59.37;;;26.27;;
22184;SDS011;11258;52.516;13.318;2022-11-23T03:38:04;53.87;;;24.97;;
22184;SDS011;11258;52.516;13.318;2022-11-23T03:40:29;49.13;;;24.40;;
22184;SDS011;11258;52.516;13.318;2022-11-23T03:42:55;58.77;;;26.07;;
22184;SDS011;11258;52.516;13.318;2022-11-23T03:45:20;53.13;;;24.23;;
22184;SDS011;11258;52.516;13.318;2022-11-23T03:47:46;58.50;;;27.40;;
22184;SDS011;11258;52.516;13.318;2022-11-23T03:50:12;55.73;;;25.47;;
22184;SDS011;11258;52.516;13.318;2022-11-23T03:52:37;59.30;;;27.07;;
22184;SDS011;11258;52.516;13.318;2022-11-23T03:55:03;53.63;;;25.57;;
22184;SDS011;11258;52.516;13.318;2022-11-23T03:57:29;60.73;;;26.90;;
22184;SDS011;11258;52.516;13.318;2022-11-23T03:59:55;56.37;;;27.03;;
22184;SDS011;11258;52.516;13.318;2022-11-23T04:02:20;53.37;;;25.93;;
22184;SDS011;11258;52.516;13.318;2022-11-23T04:04:46;56.43;;;26.00;;
22184;SDS011;11258;52.516;13.318;2022-11-23T04:07:11;58.03;;;25.87;;
22184;SDS011;11258;52.516;13.318;2022-11-23T04:09:37;55.23;;;24.80;;
22184;SDS011;11258;52.516;13.318;2022-11-23T04:12:03;60.07;;;27.17;;
22184;SDS011;11258;52.516;13.318;2022-11-23T04:14:28;57.57;;;24.73;;
22184;SDS011;11258;52.516;13.318;2022-11-23T04:16:54;55.10;;;25.43;;
22184;SDS011;11258;52.516;13.318;2022-11-23T04:19:20;54.00;;;25.33;;
22184;SDS011;11258;52.516;13.318;2022-11-23T04:21:45;49.50;;;23.97;;
22184;SDS011;11258;52.516;13.318;2022-11-23T04:24:11;53.30;;;26.07;;
22184;SDS011;11258;52.516;13.318;2022-11-23T04:26:36;54.90;;;26.37;;
22184;SDS011;11258;52.516;13.318;2022-11-23T04:29:04;48.40;;;24.63;;
22184;SDS011;11258;52.516;13.318;2022-11-23T04:31:30;58.97;;;27.60;;
22184;SDS011;11258;52.516;13.318;2022-11-23T04:33:56;54.13;;;26.17;;
22184;SDS011;11258;52.516;13.318;2022-11-23T04:36:22;56.80;;;26.80;;
22184;SDS011;11258;52.516;13.318;2022-11-23T04:38:48;60.97;;;27.73;;
22184;SDS011;11258;52.516;13.318;2022-11-23T04:41:14;51.97;;;23.67;;
22184;SDS011;11258;52.516;13.318;2022-11-23T04:43:40;58.93;;;26.70;;
22184;SDS011;11258;52.516;13.318;2022-11-23T04:46:05;54.80;;;25.50;;
22184;SDS011;11258;52.516;13.318;2022-11-23T04:48:31;54.27;;;25.77;;
22184;SDS011;11258;52.516;13.318;2022-11-23T04:50:57;49.80;;;23.97;;
22184;SDS011;11258;52.516;13.318;2022-11-23T04:53:23;53.73;;;25.13;;
22184;SDS011;11258;52.516;13.318;2022-11-23T04:55:48;58.27;;;24.60;;
22184;SDS011;11258;52.516;13.318;2022-11-23T04:58:14;53.17;;;24.27;;
22184;SDS011;11258;52.516;13.318;2022-11-23T05:00:40;55.53;;;27.03;;
22184;SDS011;11258;52.516;13.318;2022-11-23T05:03:05;50.37;;;25.47;;
22184;SDS011;11258;52.516;13.318;2022-11-23T05:05:31;54.07;;;25.60;;
22184;SDS011;11258;52.516;13.318;2022-11-23T05:07:56;45.47;;;24.40;;
22184;SDS011;11258;52.516;13.318;2022-11-23T05:10:23;49.10;;;24.03;;
22184;SDS011;11258;52.516;13.318;2022-11-23T05:12:49;47.70;;;23.47;;
22184;SDS011;11258;52.516;13.318;2022-11-23T05:15:14;49.47;;;23.10;;
22184;SDS011;11258;52.516;13.318;2022-11-23T05:17:40;48.27;;;23.77;;
22184;SDS011;11258;52.516;13.318;2022-11-23T05:20:06;44.87;;;23.97;;
22184;SDS011;11258;52.516;13.318;2022-11-23T05:22:32;43.63;;;23.90;;
22184;SDS011;11258;52.516;13.318;2022-11-23T05:24:58;49.53;;;21.80;;
22184;SDS011;11258;52.516;13.318;2022-11-23T05:27:24;49.67;;;23.80;;
22184;SDS011;11258;52.516;13.318;2022-11-23T05:29:49;56.07;;;23.90;;
22184;SDS011;11258;52.516;13.318;2022-11-23T05:32:15;47.17;;;24.07;;
22184;SDS011;11258;52.516;13.318;2022-11-23T05:34:41;49.07;;;22.70;;
22184;SDS011;11258;52.516;13.318;2022-11-23T05:37:07;42.50;;;21.43;;
22184;SDS011;11258;52.516;13.318;2022-11-23T05:39:32;46.63;;;22.37;;
22184;SDS011;11258;52.516;13.318;2022-11-23T05:41:58;43.17;;;22.40;;
22184;SDS011;11258;52.516;13.318;2022-11-23T05:44:23;47.50;;;22.67;;
22184;SDS011;11258;52.516;13.318;2022-11-23T05:46:49;47.97;;;23.50;;
22184;SDS011;11258;52.516;13.318;2022-11-23T05:49:14;43.47;;;22.77;;
22184;SDS011;11258;52.516;13.318;2022-11-23T05:51:40;49.47;;;24.03;;
22184;SDS011;11258;52.516;13.318;2022-11-23T05:54:06;45.63;;;22.30;;
22184;SDS011;11258;52.516;13.318;2022-11-23T05:56:31;47.53;;;23.67;;
22184;SDS011;11258;52.516;13.318;2022-11-23T05:58:57;46.17;;;23.23;;
22184;SDS011;11258;52.516;13.318;2022-11-23T06:01:22;45.00;;;22.43;;
22184;SDS011;11258;52.516;13.318;2022-11-23T06:03:49;43.63;;;21.77;;
22184;SDS011;11258;52.516;13.318;2022-11-23T06:06:15;42.73;;;20.73;;
22184;SDS011;11258;52.516;13.318;2022-11-23T06:08:41;44.47;;;22.23;;
22184;SDS011;11258;52.516;13.318;2022-11-23T06:11:06;46.73;;;21.57;;
22184;SDS011;11258;52.516;13.318;2022-11-23T06:13:32;43.83;;;20.33;;
22184;SDS011;11258;52.516;13.318;2022-11-23T06:15:58;46.53;;;22.57;;
22184;SDS011;11258;52.516;13.318;2022-11-23T06:18:23;41.67;;;21.23;;
22184;SDS011;11258;52.516;13.318;2022-11-23T06:20:49;42.07;;;21.97;;
22184;SDS011;11258;52.516;13.318;2022-11-23T06:23:14;43.03;;;20.23;;
22184;SDS011;11258;52.516;13.318;2022-11-23T06:25:40;42.20;;;21.57;;
22184;SDS011;11258;52.516;13.318;2022-11-23T06:28:06;39.30;;;21.10;;
22184;SDS011;11258;52.516;13.318;2022-11-23T06:30:31;43.73;;;20.33;;
22184;SDS011;11258;52.516;13.318;2022-11-23T06:32:57;37.07;;;19.80;;
22184;SDS011;11258;52.516;13.318;2022-11-23T06:35:26;45.30;;;21.90;;
22184;SDS011;11258;52.516;13.318;2022-11-23T06:37:51;46.80;;;22.37;;
22184;SDS011;11258;52.516;13.318;2022-11-23T06:40:18;41.23;;;22.17;;
22184;SDS011;11258;52.516;13.318;2022-11-23T06:42:44;42.63;;;22.10;;
22184;SDS011;11258;52.516;13.318;2022-11-23T06:45:10;46.63;;;22.47;;
22184;SDS011;11258;52.516;13.318;2022-11-23T06:47:36;44.00;;;21.00;;
22184;SDS011;11258;52.516;13.318;2022-11-23T06:50:02;48.20;;;21.67;;
22184;SDS011;11258;52.516;13.318;2022-11-23T06:52:28;43.67;;;22.30;;
22184;SDS011;11258;52.516;13.318;2022-11-23T06:54:53;38.87;;;21.00;;
22184;SDS011;11258;52.516;13.318;2022-11-23T06:57:19;44.07;;;22.27;;
22184;SDS011;11258;52.516;13.318;2022-11-23T06:59:45;42.73;;;21.80;;
22184;SDS011;11258;52.516;13.318;2022-11-23T07:02:11;45.13;;;20.87;;
22184;SDS011;11258;52.516;13.318;2022-11-23T07:04:37;43.30;;;21.03;;
22184;SDS011;11258;52.516;13.318;2022-11-23T07:07:02;47.73;;;21.37;;
22184;SDS011;11258;52.516;13.318;2022-11-23T07:09:28;43.87;;;22.87;;
22184;SDS011;11258;52.516;13.318;2022-11-23T07:11:53;40.67;;;22.37;;
22184;SDS011;11258;52.516;13.318;2022-11-23T07:14:19;42.97;;;20.53;;
22184;SDS011;11258;52.516;13.318;2022-11-23T07:16:44;46.30;;;21.43;;
22184;SDS011;11258;52.516;13.318;2022-11-23T07:19:10;41.87;;;22.03;;
22184;SDS011;11258;52.516;13.318;2022-11-23T07:21:36;45.23;;;22.17;;
22184;SDS011;11258;52.516;13.318;2022-11-23T07:24:01;45.27;;;21.77;;
22184;SDS011;11258;52.516;13.318;2022-11-23T07:26:27;45.33;;;22.27;;
22184;SDS011;11258;52.516;13.318;2022-11-23T07:28:53;44.93;;;21.47;;
22184;SDS011;11258;52.516;13.318;2022-11-23T07:31:18;46.77;;;22.20;;
22184;SDS011;11258;52.516;13.318;2022-11-23T07:33:44;45.40;;;22.27;;
22184;SDS011;11258;52.516;13.318;2022-11-23T07:36:10;39.57;;;21.47;;
22184;SDS011;11258;52.516;13.318;2022-11-23T07:38:37;44.17;;;21.73;;
22184;SDS011;11258;52.516;13.318;2022-11-23T07:41:02;43.57;;;22.37;;
22184;SDS011;11258;52.516;13.318;2022-11-23T07:43:28;37.17;;;20.47;;
22184;SDS011;11258;52.516;13.318;2022-11-23T07:45:54;39.07;;;20.13;;
22184;SDS011;11258;52.516;13.318;2022-11-23T07:48:21;36.83;;;19.17;;
22184;SDS011;11258;52.516;13.318;2022-11-23T07:50:47;32.20;;;18.53;;
22184;SDS011;11258;52.516;13.318;2022-11-23T07:53:15;34.53;;;18.07;;
22184;SDS011;11258;52.516;13.318;2022-11-23T07:55:41;32.00;;;17.87;;
22184;SDS011;11258;52.516;13.318;2022-11-23T07:58:07;32.63;;;18.57;;
22184;SDS011;11258;52.516;13.318;2022-11-23T08:00:34;37.77;;;19.97;;
22184;SDS011;11258;52.516;13.318;2022-11-23T08:02:59;36.37;;;18.57;;
22184;SDS011;11258;52.516;13.318;2022-11-23T08:05:25;38.03;;;19.57;;
22184;SDS011;11258;52.516;13.318;2022-11-23T08:07:56;35.90;;;18.97;;
22184;SDS011;11258;52.516;13.318;2022-11-23T08:10:28;40.87;;;20.27;;
22184;SDS011;11258;52.516;13.318;2022-11-23T08:13:10;46.60;;;24.90;;
22184;SDS011;11258;52.516;13.318;2022-11-23T08:15:36;37.27;;;20.07;;
22184;SDS011;11258;52.516;13.318;2022-11-23T08:18:02;40.07;;;20.37;;
22184;SDS011;11258;52.516;13.318;2022-11-23T08:20:28;38.20;;;20.43;;
22184;SDS011;11258;52.516;13.318;2022-11-23T08:22:54;38.17;;;18.43;;
22184;SDS011;11258;52.516;13.318;2022-11-23T08:25:21;39.23;;;19.73;;
22184;SDS011;11258;52.516;13.318;2022-11-23T08:27:58;39.37;;;20.27;;
22184;SDS011;11258;52.516;13.318;2022-11-23T08:30:28;33.57;;;18.37;;
22184;SDS011;11258;52.516;13.318;2022-11-23T08:32:55;37.17;;;19.23;;
22184;SDS011;11258;52.516;13.318;2022-11-23T08:35:20;40.47;;;21.07;;
22184;SDS011;11258;52.516;13.318;2022-11-23T08:37:46;37.70;;;19.73;;
22184;SDS011;11258;52.516;13.318;2022-11-23T08:40:12;40.17;;;20.13;;
22184;SDS011;11258;52.516;13.318;2022-11-23T08:42:38;37.30;;;19.43;;
22184;SDS011;11258;52.516;13.318;2022-11-23T08:45:04;40.63;;;20.63;;
22184;SDS011;11258;52.516;13.318;2022-11-23T08:47:30;38.70;;;19.47;;
22184;SDS011;11258;52.516;13.318;2022-11-23T08:49:57;36.13;;;19.77;;
22184;SDS011;11258;52.516;13.318;2022-11-23T08:52:22;40.20;;;19.23;;
22184;SDS011;11258;52.516;13.318;2022-11-23T08:54:48;37.20;;;19.17;;
22184;SDS011;11258;52.516;13.318;2022-11-23T08:57:13;31.00;;;18.30;;
22184;SDS011;11258;52.516;13.318;2022-11-23T08:59:39;34.60;;;19.07;;
22184;SDS011;11258;52.516;13.318;2022-11-23T09:02:05;36.50;;;19.20;;
22184;SDS011;11258;52.516;13.318;2022-11-23T09:04:30;32.80;;;19.07;;
22184;SDS011;11258;52.516;13.318;2022-11-23T09:06:56;37.57;;;19.37;;
22184;SDS011;11258;52.516;13.318;2022-11-23T09:09:22;34.93;;;19.20;;
22184;SDS011;11258;52.516;13.318;2022-11-23T09:11:47;35.90;;;19.07;;
22184;SDS011;11258;52.516;13.318;2022-11-23T09:14:13;30.60;;;18.33;;
22184;SDS011;11258;52.516;13.318;2022-11-23T09:16:39;31.50;;;17.67;;
22184;SDS011;11258;52.516;13.318;2022-11-23T09:19:05;34.33;;;18.33;;
22184;SDS011;11258;52.516;13.318;2022-11-23T09:21:32;33.17;;;17.97;;
22184;SDS011;11258;52.516;13.318;2022-11-23T09:23:59;30.53;;;17.83;;
22184;SDS011;11258;52.516;13.318;2022-11-23T09:26:26;34.93;;;18.67;;
22184;SDS011;11258;52.516;13.318;2022-11-23T09:28:51;33.00;;;18.13;;
22184;SDS011;11258;52.516;13.318;2022-11-23T09:31:17;32.20;;;17.10;;
22184;SDS011;11258;52.516;13.318;2022-11-23T09:33:43;31.10;;;17.23;;
22184;SDS011;11258;52.516;13.318;2022-11-23T09:36:08;30.03;;;15.93;;
22184;SDS011;11258;52.516;13.318;2022-11-23T09:38:34;31.47;;;16.57;;
22184;SDS011;11258;52.516;13.318;2022-11-23T09:46:10;28.37;;;15.87;;
22184;SDS011;11258;52.516;13.318;2022-11-23T09:49:16;50.80;;;24.67;;
22184;SDS011;11258;52.516;13.318;2022-11-23T09:51:44;31.80;;;17.80;;
22184;SDS011;11258;52.516;13.318;2022-11-23T09:54:29;34.93;;;18.33;;
22184;SDS011;11258;52.516;13.318;2022-11-23T09:56:57;32.50;;;17.57;;
22184;SDS011;11258;52.516;13.318;2022-11-23T09:59:30;30.90;;;17.73;;
22184;SDS011;11258;52.516;13.318;2022-11-23T10:02:23;28.93;;;16.17;;
22184;SDS011;11258;52.516;13.318;2022-11-23T10:04:54;27.03;;;16.60;;
22184;SDS011;11258;52.516;13.318;2022-11-23T10:13:05;27.77;;;14.77;;
22184;SDS011;11258;52.516;13.318;2022-11-23T10:18:34;25.07;;;14.27;;
22184;SDS011;11258;52.516;13.318;2022-11-23T10:26:11;25.97;;;14.37;;
22184;SDS011;11258;52.516;13.318;2022-11-23T10:28:40;27.27;;;15.50;;
22184;SDS011;11258;52.516;13.318;2022-11-23T10:31:25;26.73;;;14.53;;
22184;SDS011;11258;52.516;13.318;2022-11-23T10:33:57;27.93;;;15.10;;
22184;SDS011;11258;52.516;13.318;2022-11-23T10:36:33;26.50;;;15.33;;
22184;SDS011;11258;52.516;13.318;2022-11-23T10:39:00;25.50;;;14.47;;
22184;SDS011;11258;52.516;13.318;2022-11-23T10:41:28;26.27;;;14.03;;
22184;SDS011;11258;52.516;13.318;2022-11-23T10:43:57;23.57;;;13.90;;
22184;SDS011;11258;52.516;13.318;2022-11-23T10:49:17;22.73;;;13.53;;
22184;SDS011;11258;52.516;13.318;2022-11-23T10:56:49;24.00;;;12.77;;
22184;SDS011;11258;52.516;13.318;2022-11-23T10:59:35;24.50;;;13.50;;
22184;SDS011;11258;52.516;13.318;2022-11-23T11:02:19;24.57;;;13.80;;
22184;SDS011;11258;52.516;13.318;2022-11-23T11:04:46;21.50;;;13.27;;
22184;SDS011;11258;52.516;13.318;2022-11-23T11:07:25;21.90;;;13.20;;
22184;SDS011;11258;52.516;13.318;2022-11-23T11:09:54;23.67;;;13.40;;
22184;SDS011;11258;52.516;13.318;2022-11-23T11:12:25;25.23;;;13.37;;
22184;SDS011;11258;52.516;13.318;2022-11-23T11:15:11;25.23;;;13.63;;
22184;SDS011;11258;52.516;13.318;2022-11-23T11:17:40;25.67;;;13.27;;
22184;SDS011;11258;52.516;13.318;2022-11-23T11:22:58;29.33;;;13.23;;
22184;SDS011;11258;52.516;13.318;2022-11-23T11:25:39;26.37;;;14.50;;
22184;SDS011;11258;52.516;13.318;2022-11-23T11:28:17;24.00;;;13.83;;
22184;SDS011;11258;52.516;13.318;2022-11-23T11:31:02;25.40;;;14.37;;
22184;SDS011;11258;52.516;13.318;2022-11-23T11:33:52;25.70;;;15.17;;
22184;SDS011;11258;52.516;13.318;2022-11-23T11:36:20;26.90;;;14.27;;
22184;SDS011;11258;52.516;13.318;2022-11-23T11:38:48;25.30;;;15.10;;
22184;SDS011;11258;52.516;13.318;2022-11-23T11:41:17;30.00;;;15.50;;
22184;SDS011;11258;52.516;13.318;2022-11-23T11:43:49;26.77;;;15.37;;
22184;SDS011;11258;52.516;13.318;2022-11-23T11:46:22;26.27;;;15.50;;
22184;SDS011;11258;52.516;13.318;2022-11-23T11:49:13;29.07;;;16.23;;
22184;SDS011;11258;52.516;13.318;2022-11-23T11:52:01;26.87;;;14.73;;
22184;SDS011;11258;52.516;13.318;2022-11-23T11:54:41;26.83;;;15.53;;
22184;SDS011;11258;52.516;13.318;2022-11-23T11:57:11;33.40;;;17.60;;
22184;SDS011;11258;52.516;13.318;2022-11-23T11:59:52;28.33;;;16.43;;
22184;SDS011;11258;52.516;13.318;2022-11-23T12:02:23;29.17;;;14.83;;
22184;SDS011;11258;52.516;13.318;2022-11-23T12:09:49;23.23;;;14.40;;
22184;SDS011;11258;52.516;13.318;2022-11-23T12:12:19;29.27;;;13.87;;
22184;SDS011;11258;52.516;13.318;2022-11-23T12:14:46;32.50;;;17.60;;
22184;SDS011;11258;52.516;13.318;2022-11-23T12:17:36;33.17;;;15.90;;
22184;SDS011;11258;52.516;13.318;2022-11-23T12:23:01;25.83;;;14.73;;
22184;SDS011;11258;52.516;13.318;2022-11-23T12:25:42;20.93;;;12.83;;
22184;SDS011;11258;52.516;13.318;2022-11-23T12:28:35;27.30;;;15.00;;
22184;SDS011;11258;52.516;13.318;2022-11-23T12:31:45;24.67;;;13.90;;
22184;SDS011;11258;52.516;13.318;2022-11-23T12:43:20;28.60;;;15.83;;
22184;SDS011;11258;52.516;13.318;2022-11-23T12:48:30;25.47;;;13.97;;
22184;SDS011;11258;52.516;13.318;2022-11-23T12:59:46;25.30;;;13.77;;
22184;SDS011;11258;52.516;13.318;2022-11-23T13:02:20;24.97;;;13.93;;
22184;SDS011;11258;52.516;13.318;2022-11-23T13:07:47;22.03;;;12.63;;
22184;SDS011;11258;52.516;13.318;2022-11-23T13:10:39;21.77;;;11.57;;
22184;SDS011;11258;52.516;13.318;2022-11-23T13:16:13;21.13;;;12.13;;
22184;SDS011;11258;52.516;13.318;2022-11-23T13:19:09;23.00;;;12.57;;
22184;SDS011;11258;52.516;13.318;2022-11-23T13:21:41;19.23;;;12.27;;
22184;SDS011;11258;52.516;13.318;2022-11-23T13:24:25;23.60;;;13.97;;
22184;SDS011;11258;52.516;13.318;2022-11-23T13:27:39;22.63;;;13.00;;
22184;SDS011;11258;52.516;13.318;2022-11-23T13:30:08;25.07;;;12.73;;
22184;SDS011;11258;52.516;13.318;2022-11-23T13:32:57;23.47;;;13.37;;
22184;SDS011;11258;52.516;13.318;2022-11-23T13:40:24;24.57;;;13.63;;
22184;SDS011;11258;52.516;13.318;2022-11-23T13:42:51;27.83;;;14.70;;
22184;SDS011;11258;52.516;13.318;2022-11-23T13:50:29;23.20;;;13.63;;
22184;SDS011;11258;52.516;13.318;2022-11-23T13:52:56;23.47;;;13.57;;
22184;SDS011;11258;52.516;13.318;2022-11-23T13:55:37;24.93;;;14.03;;
22184;SDS011;11258;52.516;13.318;2022-11-23T14:31:42;23.00;;;12.40;;
22184;SDS011;11258;52.516;13.318;2022-11-23T14:42:22;25.23;;;13.17;;
22184;SDS011;11258;52.516;13.318;2022-11-23T14:44:50;23.60;;;13.37;;
22184;SDS011;11258;52.516;13.318;2022-11-23T14:47:25;24.50;;;12.90;;
22184;SDS011;11258;52.516;13.318;2022-11-23T14:49:52;21.13;;;13.17;;
22184;SDS011;11258;52.516;13.318;2022-11-23T14:52:19;25.37;;;12.97;;
22184;SDS011;11258;52.516;13.318;2022-11-23T14:54:51;26.00;;;12.37;;
22184;SDS011;11258;52.516;13.318;2022-11-23T14:57:18;24.43;;;13.57;;
22184;SDS011;11258;52.516;13.318;2022-11-23T14:59:47;23.70;;;14.60;;
22184;SDS011;11258;52.516;13.318;2022-11-23T15:07:47;23.77;;;13.67;;
22184;SDS011;11258;52.516;13.318;2022-11-23T15:10:37;22.47;;;12.40;;
22184;SDS011;11258;52.516;13.318;2022-11-23T15:13:17;23.20;;;12.40;;
22184;SDS011;11258;52.516;13.318;2022-11-23T15:15:45;22.57;;;12.37;;
22184;SDS011;11258;52.516;13.318;2022-11-23T15:18:11;22.63;;;12.47;;
22184;SDS011;11258;52.516;13.318;2022-11-23T15:20:41;24.73;;;13.23;;
22184;SDS011;11258;52.516;13.318;2022-11-23T15:23:18;21.97;;;12.03;;
22184;SDS011;11258;52.516;13.318;2022-11-23T15:25:52;22.80;;;12.03;;
22184;SDS011;11258;52.516;13.318;2022-11-23T15:28:24;21.90;;;11.63;;
22184;SDS011;11258;52.516;13.318;2022-11-23T15:30:51;20.27;;;12.57;;
22184;SDS011;11258;52.516;13.318;2022-11-23T15:33:18;22.00;;;12.43;;
22184;SDS011;11258;52.516;13.318;2022-11-23T15:35:45;22.63;;;11.50;;
22184;SDS011;11258;52.516;13.318;2022-11-23T15:38:12;23.37;;;12.83;;
22184;SDS011;11258;52.516;13.318;2022-11-23T15:40:40;23.57;;;12.77;;
22184;SDS011;11258;52.516;13.318;2022-11-23T15:43:11;25.47;;;12.73;;
22184;SDS011;11258;52.516;13.318;2022-11-23T15:53:18;23.73;;;12.87;;
22184;SDS011;11258;52.516;13.318;2022-11-23T15:55:48;20.93;;;11.27;;
22184;SDS011;11258;52.516;13.318;2022-11-23T15:58:15;22.93;;;12.43;;
22184;SDS011;11258;52.516;13.318;2022-11-23T16:00:47;22.43;;;12.53;;
22184;SDS011;11258;52.516;13.318;2022-11-23T16:06:33;20.63;;;12.70;;
22184;SDS011;11258;52.516;13.318;2022-11-23T16:08:33;22.40;;;12.97;;
22184;SDS011;11258;52.516;13.318;2022-11-23T16:11:01;21.93;;;13.13;;
22184;SDS011;11258;52.516;13.318;2022-11-23T16:13:36;22.07;;;13.40;;
22184;SDS011;11258;52.516;13.318;2022-11-23T16:16:04;22.37;;;13.43;;
22184;SDS011;11258;52.516;13.318;2022-11-23T16:18:42;21.37;;;12.33;;
22184;SDS011;11258;52.516;13.318;2022-11-23T16:21:16;26.70;;;14.20;;
22184;SDS011;11258;52.516;13.318;2022-11-23T16:23:46;19.50;;;12.60;;
22184;SDS011;11258;52.516;13.318;2022-11-23T16:26:20;17.33;;;11.83;;
22184;SDS011;11258;52.516;13.318;2022-11-23T16:28:57;20.67;;;12.30;;
22184;SDS011;11258;52.516;13.318;2022-11-23T16:31:39;25.83;;;12.73;;
22184;SDS011;11258;52.516;13.318;2022-11-23T16:34:16;20.90;;;11.67;;
22184;SDS011;11258;52.516;13.318;2022-11-23T16:36:43;29.13;;;13.17;;
22184;SDS011;11258;52.516;13.318;2022-11-23T16:39:09;26.50;;;14.20;;
22184;SDS011;11258;52.516;13.318;2022-11-23T16:41:35;23.47;;;13.17;;